createdAt,value
2019-02-22T00:01:21.145Z,86.75
2019-02-22T00:03:47.756Z,86.71
2019-02-22T00:06:13.965Z,86.73
2019-02-22T00:08:41.840Z,86.89
2019-02-22T00:11:08.905Z,86.93
2019-02-22T00:13:35.899Z,87.06
2019-02-22T00:16:02.094Z,87.18
2019-02-22T00:18:28.231Z,87.30
2019-02-22T00:20:56.811Z,87.41
2019-02-22T00:23:24.322Z,87.62
2019-02-22T00:25:50.524Z,87.70
2019-02-22T00:28:19.793Z,87.69
2019-02-22T00:30:48.885Z,87.79
2019-02-22T00:33:16.832Z,87.92
2019-02-22T00:35:43.032Z,88.00
2019-02-22T00:38:10.859Z,87.99
2019-02-22T00:40:37.044Z,88.09
2019-02-22T00:43:03.152Z,88.24
2019-02-22T00:45:29.369Z,88.29
2019-02-22T00:47:55.488Z,88.33
2019-02-22T00:50:21.677Z,88.38
2019-02-22T00:52:51.687Z,88.39
2019-02-22T00:55:17.901Z,88.42
2019-02-22T00:57:44.829Z,88.45
2019-02-22T01:00:11.034Z,88.49
2019-02-22T01:02:37.203Z,88.54
2019-02-22T01:05:05.893Z,88.58
2019-02-22T01:07:32.021Z,88.70
2019-02-22T01:09:58.220Z,88.67
2019-02-22T01:12:24.318Z,88.72
2019-02-22T01:14:53.733Z,88.74
2019-02-22T01:17:22.719Z,88.72
2019-02-22T01:19:48.932Z,88.79
2019-02-22T01:22:15.378Z,88.90
2019-02-22T01:24:41.576Z,88.87
2019-02-22T01:27:07.735Z,88.81
2019-02-22T01:29:33.944Z,88.81
2019-02-22T01:32:04.872Z,88.89
2019-02-22T01:34:31.089Z,88.85
2019-02-22T01:36:57.201Z,88.83
2019-02-22T01:39:23.939Z,88.85
2019-02-22T01:41:50.081Z,88.85
2019-02-22T01:44:17.833Z,88.82
2019-02-22T01:46:44.087Z,88.90
2019-02-22T01:49:10.345Z,88.79
2019-02-22T01:51:37.948Z,88.77
2019-02-22T01:54:05.893Z,88.83
2019-02-22T01:56:34.725Z,88.85
2019-02-22T01:59:04.751Z,88.87
2019-02-22T02:01:31.463Z,88.92
2019-02-22T02:03:57.916Z,88.90
2019-02-22T02:06:24.194Z,88.88
2019-02-22T02:08:50.389Z,88.95
2019-02-22T02:11:19.753Z,88.99
2019-02-22T02:13:45.967Z,89.02
2019-02-22T02:16:12.078Z,89.11
2019-02-22T02:18:38.284Z,89.09
2019-02-22T02:21:04.423Z,89.10
2019-02-22T02:23:31.915Z,89.17
2019-02-22T02:25:58.084Z,89.19
2019-02-22T02:28:24.315Z,89.30
2019-02-22T02:30:50.511Z,89.29
2019-02-22T02:33:18.031Z,89.27
2019-02-22T02:35:45.611Z,89.37
2019-02-22T02:38:14.815Z,89.37
2019-02-22T02:40:43.974Z,89.49
2019-02-22T02:43:10.973Z,89.51
2019-02-22T02:45:37.215Z,89.57
2019-02-22T02:48:03.457Z,89.59
2019-02-22T02:50:33.487Z,89.63
2019-02-22T02:52:59.701Z,89.63
2019-02-22T02:55:40.682Z,89.62
2019-02-22T02:58:06.870Z,89.64
2019-02-22T03:00:33.015Z,89.65
2019-02-22T03:02:59.154Z,89.66
2019-02-22T03:05:31.712Z,89.74
2019-02-22T03:08:02.902Z,89.79
2019-02-22T03:10:31.483Z,89.73
2019-02-22T03:12:57.209Z,89.73
2019-02-22T03:15:25.828Z,89.79
2019-02-22T03:17:54.912Z,89.72
2019-02-22T03:20:21.046Z,89.71
2019-02-22T03:22:47.197Z,89.75
2019-02-22T03:25:13.402Z,89.70
2019-02-22T03:27:40.603Z,89.70
2019-02-22T03:30:08.846Z,89.74
2019-02-22T03:32:37.009Z,89.71
2019-02-22T03:35:05.315Z,89.67
2019-02-22T03:37:32.609Z,89.72
2019-02-22T03:40:00.976Z,89.72
2019-02-22T03:42:30.903Z,89.67
2019-02-22T03:44:59.919Z,89.62
2019-02-22T03:47:26.012Z,89.68
2019-02-22T03:49:52.714Z,89.68
2019-02-22T03:52:25.714Z,89.64
2019-02-22T03:54:51.952Z,89.57
2019-02-22T03:57:18.052Z,89.53
2019-02-22T03:59:44.278Z,89.53
2019-02-22T04:02:10.496Z,89.53
2019-02-22T04:04:38.011Z,89.52
2019-02-22T04:07:04.213Z,89.41
2019-02-22T04:09:30.371Z,89.40
2019-02-22T04:11:56.611Z,89.45
2019-02-22T04:14:22.855Z,89.35
2019-02-22T04:16:49.059Z,89.39
2019-02-22T04:19:18.209Z,89.37
2019-02-22T04:21:47.023Z,89.28
2019-02-22T04:24:14.007Z,89.20
2019-02-22T04:26:43.933Z,89.09
2019-02-22T04:29:10.255Z,89.08
2019-02-22T04:31:36.378Z,89.09
2019-02-22T04:34:02.652Z,89.05
2019-02-22T04:36:28.853Z,89.12
2019-02-22T04:38:54.940Z,89.14
2019-02-22T04:41:21.116Z,89.19
2019-02-22T04:43:50.848Z,89.20
2019-02-22T04:46:18.282Z,89.17
2019-02-22T04:48:48.233Z,89.23
2019-02-22T04:51:17.445Z,89.23
2019-02-22T04:53:43.697Z,89.28
2019-02-22T04:56:09.908Z,89.25
2019-02-22T04:58:36.036Z,89.30
2019-02-22T05:01:02.222Z,89.20
2019-02-22T05:03:28.317Z,89.21
2019-02-22T05:05:54.576Z,89.24
2019-02-22T05:08:20.670Z,89.37
2019-02-22T05:10:52.855Z,89.43
2019-02-22T05:13:20.006Z,89.41
2019-02-22T05:15:46.259Z,89.36
2019-02-22T05:18:12.412Z,89.34
2019-02-22T05:20:38.643Z,89.33
2019-02-22T05:23:07.454Z,89.38
2019-02-22T05:25:32.847Z,89.37
2019-02-22T05:27:59.152Z,89.42
2019-02-22T05:30:25.399Z,89.41
2019-02-22T05:32:51.758Z,89.41
2019-02-22T05:35:18.023Z,89.37
2019-02-22T05:37:44.267Z,89.33
2019-02-22T05:40:10.464Z,89.33
2019-02-22T05:42:39.539Z,89.38
2019-02-22T05:45:05.938Z,89.45
2019-02-22T05:47:32.043Z,89.51
2019-02-22T05:49:58.241Z,89.54
2019-02-22T05:52:24.382Z,89.44
2019-02-22T05:54:50.747Z,89.38
2019-02-22T05:57:17.945Z,89.31
2019-02-22T05:59:44.104Z,89.16
2019-02-22T06:02:10.389Z,89.09
2019-02-22T06:04:37.261Z,88.96
2019-02-22T06:07:03.538Z,88.91
2019-02-22T06:09:29.766Z,88.87
2019-02-22T06:11:59.572Z,88.91
2019-02-22T06:14:26.436Z,88.93
2019-02-22T06:16:52.890Z,88.85
2019-02-22T06:19:20.705Z,88.81
2019-02-22T06:21:47.340Z,88.70
2019-02-22T06:24:14.234Z,88.60
2019-02-22T06:26:40.810Z,88.51
2019-02-22T06:29:07.041Z,88.43
2019-02-22T06:31:34.831Z,88.41
2019-02-22T06:34:04.143Z,88.31
2019-02-22T06:36:30.221Z,88.27
2019-02-22T06:38:56.421Z,88.27
2019-02-22T06:41:24.000Z,88.19
2019-02-22T06:43:50.217Z,88.18
2019-02-22T06:46:17.977Z,88.04
2019-02-22T06:48:44.424Z,88.00
2019-02-22T06:51:10.578Z,88.07
2019-02-22T06:53:39.959Z,88.12
2019-02-22T06:56:07.971Z,88.02
2019-02-22T06:58:34.296Z,87.92
2019-02-22T07:01:00.404Z,87.94
2019-02-22T07:03:26.615Z,87.90
2019-02-22T07:05:52.717Z,87.95
2019-02-22T07:08:19.014Z,87.94
2019-02-22T07:10:47.151Z,87.79
2019-02-22T07:13:13.383Z,87.72
2019-02-22T07:15:39.485Z,87.73
2019-02-22T07:18:05.680Z,87.58
2019-02-22T07:20:38.234Z,87.47
2019-02-22T07:23:04.871Z,87.49
2019-02-22T07:25:31.093Z,87.29
2019-02-22T07:27:57.310Z,87.27
2019-02-22T07:30:23.952Z,87.25
2019-02-22T07:32:54.352Z,87.18
2019-02-22T07:35:20.732Z,87.11
2019-02-22T07:37:49.127Z,87.09
2019-02-22T07:40:15.262Z,87.09
2019-02-22T07:42:43.084Z,87.09
2019-02-22T07:45:09.515Z,87.09
2019-02-22T07:47:35.698Z,87.03
2019-02-22T07:50:01.904Z,86.97
2019-02-22T07:52:28.682Z,86.93
2019-02-22T07:54:55.822Z,86.99
2019-02-22T07:57:22.387Z,87.05
2019-02-22T07:59:49.020Z,87.08
2019-02-22T08:02:15.511Z,87.11
2019-02-22T08:04:42.071Z,87.12
2019-02-22T08:07:08.399Z,87.16
2019-02-22T08:09:34.734Z,87.19
2019-02-22T08:12:00.982Z,87.10
2019-02-22T08:14:32.329Z,86.96
2019-02-22T08:16:58.568Z,86.98
2019-02-22T08:19:35.360Z,87.01
2019-02-22T08:22:11.280Z,86.92
2019-02-22T08:24:42.169Z,86.79
2019-02-22T08:27:12.307Z,86.77
2019-02-22T08:42:39.814Z,86.13
2019-02-22T08:45:10.060Z,86.16
2019-02-22T08:47:36.520Z,86.13
2019-02-22T08:50:04.328Z,86.08
2019-02-22T08:52:30.637Z,85.84
2019-02-22T08:54:56.884Z,85.90
2019-02-22T08:57:23.255Z,85.88
2019-02-22T08:59:49.496Z,85.86
2019-02-22T09:02:19.402Z,85.81
2019-02-22T09:04:47.058Z,85.86
2019-02-22T09:07:13.447Z,86.10
2019-02-22T09:09:39.715Z,85.90
2019-02-22T09:12:06.048Z,85.93
2019-02-22T09:14:40.284Z,85.95
2019-02-22T09:17:09.198Z,85.98
2019-02-22T09:19:35.692Z,86.02
2019-02-22T09:22:01.932Z,86.03
2019-02-22T09:24:28.156Z,86.00
2019-02-22T09:26:54.259Z,85.99
2019-02-22T09:29:20.505Z,85.99
2019-02-22T09:31:46.706Z,86.06
2019-02-22T09:34:13.095Z,86.05
2019-02-22T09:36:40.334Z,86.04
2019-02-22T09:39:06.544Z,85.99
2019-02-22T09:41:33.470Z,85.77
2019-02-22T09:44:02.750Z,85.78
2019-02-22T09:46:28.887Z,85.67
2019-02-22T09:48:55.109Z,85.53
2019-02-22T09:51:21.204Z,85.19
2019-02-22T09:53:51.003Z,85.06
2019-02-22T09:56:17.465Z,85.26
2019-02-22T09:58:48.127Z,85.21
2019-02-22T10:01:14.328Z,85.11
2019-02-22T10:03:40.529Z,85.30
2019-02-22T10:06:06.688Z,85.46
2019-02-22T10:08:35.559Z,85.51
2019-02-22T10:11:01.658Z,85.64
2019-02-22T10:13:28.011Z,85.76
2019-02-22T10:15:54.376Z,85.79
2019-02-22T10:18:21.558Z,85.50
2019-02-22T10:20:48.105Z,85.50
2019-02-22T10:23:14.357Z,85.36
2019-02-22T10:25:41.367Z,85.21
2019-02-22T10:28:17.322Z,85.19
2019-02-22T10:30:38.812Z,85.22
2019-02-22T10:33:05.863Z,85.16
2019-02-22T10:35:32.898Z,85.08
2019-02-22T10:38:00.306Z,85.13
2019-02-22T10:40:29.418Z,85.04
2019-02-22T10:42:57.229Z,84.95
2019-02-22T10:45:24.243Z,84.95
2019-02-22T10:47:51.340Z,85.07
2019-02-22T10:50:17.545Z,85.14
2019-02-22T10:52:43.739Z,85.17
2019-02-22T10:55:11.454Z,85.16
2019-02-22T10:57:37.787Z,85.22
2019-02-22T11:00:10.015Z,85.23
2019-02-22T11:02:36.320Z,85.34
2019-02-22T11:05:02.412Z,85.27
2019-02-22T11:07:30.544Z,85.28
2019-02-22T11:09:56.664Z,85.15
2019-02-22T11:12:22.891Z,84.98
2019-02-22T11:14:49.055Z,84.78
2019-02-22T11:17:15.260Z,84.89
2019-02-22T11:19:45.693Z,84.81
2019-02-22T11:22:09.672Z,84.68
2019-02-22T11:24:37.688Z,84.35
2019-02-22T11:27:04.764Z,84.30
2019-02-22T11:29:41.218Z,84.27
2019-02-22T11:32:08.706Z,84.31
2019-02-22T11:35:05.987Z,84.40
2019-02-22T11:37:32.331Z,84.42
2019-02-22T11:39:58.482Z,84.22
2019-02-22T11:42:24.687Z,84.28
2019-02-22T11:44:51.029Z,84.41
2019-02-22T11:47:17.248Z,84.56
2019-02-22T11:49:43.612Z,84.60
2019-02-22T11:52:18.760Z,84.20
2019-02-22T11:54:45.256Z,83.78
2019-02-22T11:57:11.500Z,83.49
2019-02-22T11:59:37.605Z,83.52
2019-02-22T12:02:03.819Z,83.34
2019-02-22T12:04:30.137Z,83.26
2019-02-22T12:06:56.345Z,83.00
2019-02-22T12:09:22.540Z,82.76
2019-02-22T12:11:48.877Z,82.71
2019-02-22T12:14:15.397Z,82.70
2019-02-22T12:16:42.604Z,82.81
2019-02-22T12:19:08.808Z,83.11
2019-02-22T12:21:35.082Z,83.30
2019-02-22T12:24:01.381Z,83.36
2019-02-22T12:26:27.632Z,83.29
2019-02-22T12:28:53.854Z,82.98
2019-02-22T12:31:20.081Z,83.07
2019-02-22T12:33:46.374Z,83.03
2019-02-22T12:36:12.667Z,82.68
2019-02-22T12:38:38.897Z,82.71
2019-02-22T12:41:10.867Z,82.60
2019-02-22T12:43:39.061Z,82.55
2019-02-22T12:46:05.205Z,82.37
2019-02-22T12:48:31.427Z,82.16
2019-02-22T12:50:57.614Z,81.86
2019-02-22T12:53:23.841Z,82.01
2019-02-22T12:55:49.968Z,81.94
2019-02-22T12:58:16.227Z,82.01
2019-02-22T13:00:42.294Z,82.08
2019-02-22T13:03:08.599Z,82.00
2019-02-22T13:05:34.962Z,81.91
2019-02-22T13:08:01.129Z,81.98
2019-02-22T13:10:27.284Z,81.93
2019-02-22T13:12:53.493Z,81.89
2019-02-22T13:15:19.630Z,81.80
2019-02-22T13:17:46.185Z,81.65
2019-02-22T13:20:16.952Z,81.64
2019-02-22T13:25:46.403Z,81.77
2019-02-22T13:28:12.620Z,81.89
2019-02-22T13:30:38.931Z,82.21
2019-02-22T13:33:05.133Z,82.13
2019-02-22T13:35:31.372Z,82.00
2019-02-22T13:37:58.867Z,81.64
2019-02-22T13:40:52.493Z,81.34
2019-02-22T13:43:18.556Z,81.31
2019-02-22T13:47:37.223Z,81.30
2019-02-22T13:48:32.376Z,81.44
2019-02-22T13:50:58.840Z,81.51
2019-02-22T13:53:31.993Z,81.74
2019-02-22T13:56:08.241Z,81.74
2019-02-22T13:58:41.518Z,81.65
2019-02-22T14:03:58.488Z,81.32
2019-02-22T14:06:35.530Z,81.23
2019-02-22T14:12:15.859Z,81.11
2019-02-22T14:14:42.023Z,81.21
2019-02-22T14:17:08.420Z,81.21
2019-02-22T14:19:42.501Z,81.22
2019-02-22T14:22:08.614Z,81.33
2019-02-22T14:24:34.943Z,81.28
2019-02-22T14:27:02.020Z,81.13
2019-02-22T14:29:28.617Z,81.24
2019-02-22T14:31:55.061Z,81.28
2019-02-22T14:34:21.320Z,81.19
2019-02-22T14:36:47.879Z,81.37
2019-02-22T14:39:15.148Z,81.19
2019-02-22T14:41:41.422Z,81.22
2019-02-22T14:44:09.941Z,81.26
2019-02-22T14:46:36.175Z,81.03
2019-02-22T14:49:02.342Z,81.08
2019-02-22T14:51:28.494Z,80.88
2019-02-22T14:53:54.638Z,80.55
2019-02-22T14:56:20.908Z,80.45
2019-02-22T14:58:47.503Z,80.30
2019-02-22T15:01:13.654Z,80.49
2019-02-22T15:03:39.819Z,80.70
2019-02-22T15:06:05.955Z,80.85
2019-02-22T15:08:32.258Z,81.27
2019-02-22T15:10:58.409Z,81.33
2019-02-22T15:13:24.530Z,81.23
2019-02-22T15:16:07.742Z,81.27
2019-02-22T15:18:33.996Z,81.24
2019-02-22T15:21:00.202Z,81.41
2019-02-22T15:23:27.473Z,81.34
2019-02-22T15:25:54.045Z,81.25
2019-02-22T15:28:20.254Z,81.12
2019-02-22T15:30:46.762Z,80.98
2019-02-22T15:33:12.985Z,81.02
2019-02-22T15:35:39.230Z,81.06
2019-02-22T15:38:06.787Z,81.20
2019-02-22T15:40:39.296Z,80.98
2019-02-22T15:43:05.038Z,80.48
2019-02-22T15:45:31.232Z,80.77
2019-02-22T15:47:57.698Z,81.04
2019-02-22T15:50:23.923Z,81.19
2019-02-22T15:52:50.408Z,81.30
2019-02-22T15:55:16.687Z,81.28
2019-02-22T15:57:42.863Z,81.19
2019-02-22T16:00:18.550Z,81.54
2019-02-22T16:02:44.895Z,81.51
2019-02-22T16:05:13.200Z,81.29
2019-02-22T16:07:44.726Z,81.01
2019-02-22T16:10:08.593Z,80.90
2019-02-22T16:12:36.610Z,80.77
2019-02-22T16:15:05.682Z,80.60
2019-02-22T16:17:32.552Z,80.56
2019-02-22T16:19:59.691Z,80.54
2019-02-22T16:22:25.855Z,80.42
2019-02-22T16:24:52.043Z,80.41
2019-02-22T16:27:18.336Z,80.15
2019-02-22T16:29:44.447Z,79.99
2019-02-22T16:32:10.675Z,79.71
2019-02-22T16:34:43.504Z,79.90
2019-02-22T16:37:05.014Z,79.97
2019-02-22T16:39:31.172Z,80.09
2019-02-22T16:41:57.373Z,80.08
2019-02-22T16:44:23.481Z,80.12
2019-02-22T16:46:49.687Z,79.95
2019-02-22T16:49:15.785Z,79.83
2019-02-22T16:51:42.032Z,79.75
2019-02-22T16:54:08.120Z,79.76
2019-02-22T16:56:34.322Z,79.69
2019-02-22T16:59:00.492Z,79.72
2019-02-22T17:01:27.793Z,79.67
2019-02-22T17:03:54.191Z,79.94
2019-02-22T17:06:20.440Z,80.07
2019-02-22T17:08:47.738Z,80.30
2019-02-22T17:11:15.337Z,80.17
2019-02-22T17:13:41.720Z,80.05
2019-02-22T17:16:08.233Z,79.98
2019-02-22T17:18:38.388Z,79.82
2019-02-22T17:21:05.110Z,79.71
2019-02-22T17:23:33.436Z,79.33
2019-02-22T17:25:59.614Z,79.02
2019-02-22T17:28:25.739Z,79.65
2019-02-22T17:30:51.923Z,79.90
2019-02-22T17:33:18.046Z,79.96
2019-02-22T17:35:45.006Z,80.26
2019-02-22T17:38:14.316Z,80.34
2019-02-22T17:40:40.501Z,80.01
2019-02-22T17:43:06.741Z,79.43
2019-02-22T17:45:33.739Z,79.35
2019-02-22T17:48:00.276Z,79.40
2019-02-22T17:50:26.487Z,79.24
2019-02-22T17:52:52.740Z,79.11
2019-02-22T17:55:21.721Z,79.49
2019-02-22T17:57:48.680Z,79.59
2019-02-22T18:00:23.927Z,79.59
2019-02-22T18:02:50.117Z,79.50
2019-02-22T18:05:16.205Z,79.27
2019-02-22T18:07:42.402Z,79.10
2019-02-22T18:10:09.500Z,79.05
2019-02-22T18:12:36.366Z,79.05
2019-02-22T18:15:04.506Z,79.12
2019-02-22T18:17:30.704Z,79.27
2019-02-22T18:19:57.415Z,79.21
2019-02-22T18:22:26.253Z,79.26
2019-02-22T18:24:52.528Z,79.37
2019-02-22T18:27:22.443Z,79.79
2019-02-22T18:29:48.693Z,78.31
2019-02-22T18:32:15.755Z,76.72
2019-02-22T18:34:42.748Z,74.47
2019-02-22T18:37:10.092Z,75.32
2019-02-22T18:39:36.306Z,75.03
2019-02-22T18:42:05.412Z,74.33
2019-02-22T18:44:31.623Z,75.18
2019-02-22T18:46:57.732Z,75.47
2019-02-22T18:49:23.896Z,75.52
2019-02-22T18:51:50.265Z,74.64
2019-02-22T18:54:16.750Z,74.52
2019-02-22T18:56:42.942Z,75.58
2019-02-22T18:59:09.212Z,75.98
2019-02-22T19:01:37.343Z,75.99
2019-02-22T19:04:03.758Z,75.72
2019-02-22T19:06:30.607Z,75.73
2019-02-22T19:08:56.851Z,75.31
2019-02-22T19:11:23.487Z,74.48
2019-02-22T19:13:53.671Z,74.76
2019-02-22T19:16:21.802Z,74.60
2019-02-22T19:18:49.983Z,74.70
2019-02-22T19:21:16.211Z,75.32
2019-02-22T19:23:42.398Z,75.53
2019-02-22T19:26:08.504Z,75.72
2019-02-22T19:28:35.202Z,76.05
2019-02-22T19:31:01.308Z,76.20
2019-02-22T19:33:27.495Z,76.44
2019-02-22T19:35:53.581Z,76.08
2019-02-22T19:38:20.532Z,76.52
2019-02-22T19:40:48.190Z,76.59
2019-02-22T19:43:17.531Z,76.61
2019-02-22T19:45:43.623Z,76.28
2019-02-22T19:48:11.559Z,75.85
2019-02-22T19:50:41.415Z,76.02
2019-02-22T19:53:06.016Z,76.46
2019-02-22T19:55:32.107Z,76.32
2019-02-22T19:57:58.296Z,76.43
2019-02-22T20:00:26.426Z,76.12
2019-02-22T20:02:52.640Z,76.21
2019-02-22T20:05:18.838Z,76.19
2019-02-22T20:07:45.097Z,75.54
2019-02-22T20:10:19.365Z,75.90
2019-02-22T20:12:47.741Z,76.38
2019-02-22T20:15:15.737Z,76.23
2019-02-22T20:17:53.007Z,75.80
2019-02-22T20:20:12.792Z,76.27
2019-02-22T20:22:39.002Z,76.42
2019-02-22T20:25:05.668Z,77.11
2019-02-22T20:27:33.058Z,76.81
2019-02-22T20:30:01.246Z,77.22
2019-02-22T20:32:27.946Z,77.17
2019-02-22T20:34:54.169Z,77.15
2019-02-22T20:37:20.722Z,77.18
2019-02-22T20:39:50.765Z,77.27
2019-02-22T20:42:19.153Z,77.13
2019-02-22T20:44:46.595Z,77.07
2019-02-22T20:47:12.782Z,76.82
2019-02-22T20:49:39.280Z,76.74
2019-02-22T20:52:06.494Z,76.80
2019-02-22T20:54:32.707Z,77.04
2019-02-22T20:57:00.816Z,77.47
2019-02-22T20:59:30.753Z,77.69
2019-02-22T21:01:57.294Z,77.40
2019-02-22T21:04:23.595Z,77.48
2019-02-22T21:06:49.700Z,77.54
2019-02-22T21:09:15.879Z,77.41
2019-02-22T21:11:42.094Z,77.42
2019-02-22T21:14:11.374Z,77.28
2019-02-22T21:16:37.905Z,77.39
2019-02-22T21:19:06.093Z,77.54
2019-02-22T21:21:32.320Z,77.60
2019-02-22T21:23:58.502Z,77.72
2019-02-22T21:26:26.229Z,77.93
2019-02-22T21:28:52.507Z,78.11
2019-02-22T21:31:18.597Z,78.22
2019-02-22T21:33:44.840Z,78.23
2019-02-22T21:36:10.945Z,78.28
2019-02-22T21:38:37.136Z,78.24
2019-02-22T21:41:03.245Z,78.41
2019-02-22T21:43:31.333Z,78.72
2019-02-22T21:46:01.673Z,79.02
2019-02-22T21:48:31.230Z,78.97
2019-02-22T21:51:00.499Z,79.03
2019-02-22T21:53:26.951Z,79.20
2019-02-22T21:55:53.139Z,79.09
2019-02-22T21:58:19.353Z,79.08
2019-02-22T22:00:45.567Z,79.13
2019-02-22T22:03:11.689Z,79.23
2019-02-22T22:05:37.889Z,79.31
2019-02-22T22:08:04.970Z,79.66
2019-02-22T22:10:31.367Z,79.71
2019-02-22T22:12:57.443Z,79.61
2019-02-22T22:15:23.649Z,79.88
2019-02-22T22:17:49.740Z,79.99
2019-02-22T22:20:16.349Z,79.97
2019-02-22T22:22:42.495Z,79.94
2019-02-22T22:25:12.725Z,79.82
2019-02-22T22:27:38.909Z,79.79
2019-02-22T22:30:07.815Z,80.02
2019-02-22T22:32:33.999Z,80.01
2019-02-22T22:35:00.342Z,80.12
2019-02-22T22:37:27.139Z,80.21
2019-02-22T22:39:53.395Z,80.05
2019-02-22T22:42:20.388Z,80.27
2019-02-22T22:44:46.941Z,80.26
2019-02-22T22:47:13.087Z,80.36
2019-02-22T22:49:39.227Z,80.52
2019-02-22T22:52:05.627Z,80.37
2019-02-22T22:54:32.867Z,80.54
2019-02-22T22:56:59.357Z,80.60
2019-02-22T22:59:27.720Z,80.59
2019-02-22T23:01:54.623Z,80.40
2019-02-22T23:04:20.801Z,80.66
2019-02-22T23:06:47.142Z,80.73
2019-02-22T23:09:20.144Z,80.90
2019-02-22T23:11:46.809Z,80.87
2019-02-22T23:14:13.039Z,80.83
2019-02-22T23:16:39.266Z,80.86
2019-02-22T23:19:05.380Z,80.90
2019-02-22T23:21:31.669Z,80.87
2019-02-22T23:23:57.930Z,81.02
2019-02-22T23:26:24.210Z,80.89
2019-02-22T23:28:50.305Z,80.99
2019-02-22T23:31:16.568Z,80.78
2019-02-22T23:33:42.692Z,80.93
2019-02-22T23:36:08.867Z,80.76
2019-02-22T23:38:36.054Z,80.84
2019-02-22T23:41:02.257Z,80.80
2019-02-22T23:43:29.307Z,81.03
2019-02-22T23:45:55.515Z,81.05
2019-02-22T23:48:21.666Z,81.06
2019-02-22T23:50:47.898Z,81.00
2019-02-22T23:53:14.141Z,81.02
2019-02-22T23:55:40.296Z,81.14
2019-02-22T23:58:06.438Z,81.12
